createdAt,value
2019-03-03T00:00:56.636Z,97986.78
2019-03-03T00:03:27.622Z,97981.47
2019-03-03T00:05:58.791Z,97987.24
2019-03-03T00:08:29.701Z,97995.63
2019-03-03T00:11:00.665Z,97985.05
2019-03-03T00:13:31.703Z,97993.64
2019-03-03T00:16:02.647Z,97985.77
2019-03-03T00:18:33.651Z,97997.37
2019-03-03T00:21:04.686Z,97994.72
2019-03-03T00:23:35.621Z,98000.13
2019-03-03T00:26:06.584Z,97996.47
2019-03-03T00:28:37.862Z,97991.73
2019-03-03T00:31:08.896Z,98000.81
2019-03-03T00:33:44.821Z,97996.69
2019-03-03T00:36:16.771Z,97995.03
2019-03-03T00:38:58.504Z,98001.43
2019-03-03T00:41:49.488Z,98001.26
2019-03-03T00:44:22.092Z,97999.02
2019-03-03T00:47:01.327Z,98001.52
2019-03-03T00:49:33.898Z,97999.38
2019-03-03T00:52:09.694Z,98000.09
2019-03-03T00:54:45.288Z,97999.69
2019-03-03T00:57:26.648Z,98004.44
2019-03-03T01:00:01.853Z,97996.14
2019-03-03T01:02:37.184Z,97989.92
2019-03-03T01:05:13.410Z,97993.81
2019-03-03T01:07:52.284Z,97995.69
2019-03-03T01:10:24.952Z,97987.40
2019-03-03T01:13:00.534Z,97992.55
2019-03-03T01:15:45.013Z,97991.30
2019-03-03T01:18:20.236Z,98002.18
2019-03-03T01:20:58.517Z,97998.19
2019-03-03T01:23:47.650Z,97997.06
2019-03-03T01:26:18.550Z,97992.02
2019-03-03T01:28:49.503Z,97989.37
2019-03-03T01:31:20.395Z,97995.06
2019-03-03T01:33:51.368Z,98007.73
2019-03-03T01:36:22.300Z,98000.44
2019-03-03T01:38:53.239Z,98000.88
2019-03-03T01:41:24.257Z,97995.29
2019-03-03T01:43:55.327Z,97993.61
2019-03-03T01:46:26.355Z,97994.00
2019-03-03T01:48:57.370Z,97998.33
2019-03-03T01:51:28.430Z,98000.03
2019-03-03T01:53:59.288Z,97997.79
2019-03-03T01:56:30.238Z,98000.44
2019-03-03T01:59:01.124Z,98005.17
2019-03-03T02:01:32.165Z,98005.13
2019-03-03T02:04:03.999Z,98005.95
2019-03-03T02:06:34.954Z,98005.95
2019-03-03T02:09:08.876Z,98006.75
2019-03-03T02:11:40.327Z,98001.46
2019-03-03T02:14:11.272Z,97995.81
2019-03-03T02:16:42.240Z,97998.81
2019-03-03T02:19:13.242Z,97990.89
2019-03-03T02:21:44.232Z,97991.62
2019-03-03T02:24:15.239Z,97992.64
2019-03-03T02:26:46.287Z,97988.63
2019-03-03T02:29:17.390Z,97995.11
2019-03-03T02:31:48.327Z,97989.47
2019-03-03T02:34:19.281Z,97989.20
2019-03-03T02:36:50.305Z,97991.80
2019-03-03T02:39:21.311Z,97979.71
2019-03-03T02:41:52.185Z,97981.47
2019-03-03T02:44:23.121Z,97981.87
2019-03-03T02:46:54.019Z,97981.01
2019-03-03T02:49:25.092Z,97974.42
2019-03-03T02:51:56.145Z,97977.58
2019-03-03T02:54:27.083Z,97975.77
2019-03-03T02:56:58.143Z,97974.97
2019-03-03T02:59:29.028Z,97983.22
2019-03-03T03:02:00.531Z,97974.02
2019-03-03T03:04:31.517Z,97977.73
2019-03-03T03:07:07.014Z,97979.33
2019-03-03T03:09:39.624Z,97976.28
2019-03-03T03:12:14.797Z,97975.56
2019-03-03T03:14:50.285Z,97968.41
2019-03-03T03:17:39.225Z,97962.45
2019-03-03T03:20:14.545Z,97962.90
2019-03-03T03:22:52.872Z,97968.98
2019-03-03T03:25:25.370Z,97968.63
2019-03-03T03:27:59.057Z,97960.39
2019-03-03T03:30:31.631Z,97953.06
2019-03-03T03:33:20.627Z,97941.55
2019-03-03T03:36:05.629Z,97939.23
2019-03-03T03:38:38.136Z,97932.30
2019-03-03T03:41:22.662Z,97926.66
2019-03-03T03:44:04.704Z,97936.64
2019-03-03T03:46:37.371Z,97937.03
2019-03-03T03:49:09.907Z,97933.55
2019-03-03T03:51:44.839Z,97935.78
2019-03-03T03:54:22.986Z,97937.61
2019-03-03T03:56:55.664Z,97936.31
2019-03-03T03:59:37.276Z,97935.97
2019-03-03T04:02:09.936Z,97926.70
2019-03-03T04:04:54.987Z,97923.26
2019-03-03T04:07:27.629Z,97927.30
2019-03-03T04:10:00.512Z,97924.88
2019-03-03T04:12:33.246Z,97925.27
2019-03-03T04:15:23.804Z,97923.48
2019-03-03T04:18:02.349Z,97912.92
2019-03-03T04:20:51.161Z,97917.89
2019-03-03T04:23:41.679Z,97919.31
2019-03-03T04:26:14.261Z,97922.77
2019-03-03T04:28:46.758Z,97919.05
2019-03-03T04:31:19.278Z,97916.62
2019-03-03T04:33:51.936Z,97917.20
2019-03-03T04:36:27.473Z,97919.05
2019-03-03T04:39:00.315Z,97913.36
2019-03-03T04:41:32.889Z,97903.72
2019-03-03T04:44:08.527Z,97903.82
2019-03-03T04:46:44.002Z,97905.97
2019-03-03T04:49:28.574Z,97905.47
2019-03-03T04:52:01.226Z,97907.94
2019-03-03T04:54:33.750Z,97906.12
2019-03-03T04:57:18.454Z,97908.33
2019-03-03T05:00:07.340Z,97910.46
2019-03-03T05:02:45.474Z,97903.98
2019-03-03T05:05:18.147Z,97909.02
2019-03-03T05:07:59.676Z,97906.80
2019-03-03T05:10:48.397Z,97910.51
2019-03-03T05:13:23.486Z,97912.13
2019-03-03T05:16:12.618Z,97911.41
2019-03-03T05:18:51.152Z,97901.12
2019-03-03T05:21:22.104Z,97910.52
2019-03-03T05:23:52.989Z,97908.09
2019-03-03T05:26:24.019Z,97909.03
2019-03-03T05:28:55.141Z,97906.66
2019-03-03T05:31:26.341Z,97903.08
2019-03-03T05:33:57.291Z,97901.02
2019-03-03T05:36:28.216Z,97901.38
2019-03-03T05:38:59.432Z,97896.55
2019-03-03T05:41:30.445Z,97898.42
2019-03-03T05:44:01.343Z,97894.16
2019-03-03T05:46:32.241Z,97893.55
2019-03-03T05:49:03.267Z,97895.88
2019-03-03T05:51:34.208Z,97891.55
2019-03-03T05:54:05.280Z,97897.67
2019-03-03T05:56:36.165Z,97906.53
2019-03-03T05:59:07.051Z,97905.06
2019-03-03T06:01:38.046Z,97903.22
2019-03-03T06:04:08.874Z,97898.03
2019-03-03T06:06:39.834Z,97893.96
2019-03-03T06:09:10.704Z,97892.62
2019-03-03T06:11:41.727Z,97887.38
2019-03-03T06:14:12.963Z,97872.61
2019-03-03T06:16:43.919Z,97876.05
2019-03-03T06:19:14.759Z,97878.42
2019-03-03T06:21:45.738Z,97880.39
2019-03-03T06:24:16.687Z,97877.20
2019-03-03T06:26:48.059Z,97890.44
2019-03-03T06:29:18.924Z,97887.00
2019-03-03T06:31:49.972Z,97888.25
2019-03-03T06:34:20.846Z,97877.81
2019-03-03T06:36:51.792Z,97877.81
2019-03-03T06:39:22.712Z,97876.46
2019-03-03T06:41:53.639Z,97873.02
2019-03-03T06:44:24.587Z,97862.23
2019-03-03T06:46:55.520Z,97864.08
2019-03-03T06:49:26.448Z,97861.95
2019-03-03T06:51:57.364Z,97854.86
2019-03-03T06:54:28.382Z,97872.45
2019-03-03T06:56:59.268Z,97873.01
2019-03-03T06:59:30.232Z,97857.97
2019-03-03T07:02:01.120Z,97859.61
2019-03-03T07:04:31.982Z,97856.50
2019-03-03T07:07:02.939Z,97850.09
2019-03-03T07:09:33.862Z,97851.94
2019-03-03T07:12:04.868Z,97850.72
2019-03-03T07:14:35.892Z,97844.10
2019-03-03T07:17:06.852Z,97843.45
2019-03-03T07:19:37.776Z,97841.09
2019-03-03T07:22:08.830Z,97837.13
2019-03-03T07:24:39.770Z,97831.36
2019-03-03T07:27:11.165Z,97835.45
2019-03-03T07:29:42.065Z,97828.96
2019-03-03T07:32:13.090Z,97828.23
2019-03-03T07:34:43.958Z,97823.95
2019-03-03T07:37:14.841Z,97825.76
2019-03-03T07:39:45.887Z,97825.03
2019-03-03T07:42:16.795Z,97827.63
2019-03-03T07:44:48.117Z,97823.61
2019-03-03T07:47:19.218Z,97825.97
2019-03-03T07:49:50.164Z,97823.89
2019-03-03T07:52:21.175Z,97830.02
2019-03-03T07:54:52.216Z,97820.90
2019-03-03T07:57:23.109Z,97824.97
2019-03-03T07:59:53.966Z,97826.54
2019-03-03T08:02:24.972Z,97813.00
2019-03-03T08:04:56.007Z,97818.73
2019-03-03T08:07:26.978Z,97821.83
2019-03-03T08:09:58.515Z,97823.16
2019-03-03T08:12:29.449Z,97822.99
2019-03-03T08:15:00.342Z,97825.95
2019-03-03T08:17:31.420Z,97826.27
2019-03-03T08:20:02.374Z,97836.23
2019-03-03T08:22:35.085Z,97830.49
2019-03-03T08:25:10.679Z,97834.36
2019-03-03T08:27:41.750Z,97825.45
2019-03-03T08:30:19.468Z,97835.48
2019-03-03T08:32:50.411Z,97827.72
2019-03-03T08:35:29.333Z,97832.22
2019-03-03T08:38:01.083Z,97826.44
2019-03-03T08:40:35.365Z,97827.36
2019-03-03T08:43:07.993Z,97829.26
2019-03-03T08:45:46.733Z,97834.15
2019-03-03T08:48:19.413Z,97838.14
2019-03-03T08:51:04.062Z,97845.21
2019-03-03T08:53:36.810Z,97842.02
2019-03-03T08:56:12.302Z,97835.98
2019-03-03T08:58:47.998Z,97843.90
2019-03-03T09:01:36.866Z,97842.34
2019-03-03T09:04:21.101Z,97852.56
2019-03-03T09:06:56.233Z,97852.88
2019-03-03T09:09:39.125Z,97856.66
2019-03-03T09:12:11.825Z,97854.11
2019-03-03T09:14:44.343Z,97860.86
2019-03-03T09:17:32.486Z,97854.27
2019-03-03T09:20:07.179Z,97848.17
2019-03-03T09:22:39.750Z,97857.16
2019-03-03T09:25:27.427Z,97859.70
2019-03-03T09:28:03.119Z,97851.47
2019-03-03T09:30:44.732Z,97857.73
2019-03-03T09:33:33.946Z,97861.33
2019-03-03T09:36:09.271Z,97851.58
2019-03-03T09:38:50.828Z,97855.05
2019-03-03T09:41:26.243Z,97848.70
2019-03-03T09:44:14.238Z,97852.42
2019-03-03T09:46:52.939Z,97847.39
2019-03-03T09:49:39.257Z,97876.53
2019-03-03T09:52:11.828Z,97856.66
2019-03-03T09:54:44.497Z,97875.52
2019-03-03T09:57:17.309Z,97861.63
2019-03-03T09:59:49.947Z,97866.41
2019-03-03T10:02:22.657Z,97855.23
2019-03-03T10:05:10.591Z,97876.31
2019-03-03T10:07:58.517Z,97865.91
2019-03-03T10:10:37.293Z,97866.52
2019-03-03T10:13:22.071Z,97854.79
2019-03-03T10:15:55.541Z,97866.10
2019-03-03T10:18:32.132Z,97853.62
2019-03-03T10:21:04.673Z,97857.95
2019-03-03T10:23:46.462Z,97847.33
2019-03-03T10:26:31.065Z,97850.51
2019-03-03T10:29:19.005Z,97846.44
2019-03-03T10:32:08.224Z,97841.02
2019-03-03T10:34:50.385Z,97838.59
2019-03-03T10:37:25.814Z,97839.06
2019-03-03T10:40:25.631Z,97839.23
2019-03-03T10:43:06.744Z,97835.78
2019-03-03T10:45:48.238Z,97855.27
2019-03-03T10:48:23.547Z,97835.78
2019-03-03T10:50:58.931Z,97836.23
2019-03-03T10:53:31.645Z,97848.78
2019-03-03T10:56:21.547Z,97832.23
2019-03-03T10:59:00.992Z,97817.86
2019-03-03T11:01:49.944Z,97817.79
2019-03-03T11:04:28.385Z,97811.97
2019-03-03T11:07:06.745Z,97819.11
2019-03-03T11:09:39.325Z,97819.70
2019-03-03T11:12:30.159Z,97825.50
2019-03-03T11:15:05.532Z,97815.80
2019-03-03T11:17:54.586Z,97828.63
2019-03-03T11:20:39.686Z,97827.00
2019-03-03T11:23:28.678Z,97814.41
2019-03-03T11:26:13.527Z,97814.44
2019-03-03T11:29:02.621Z,97817.44
2019-03-03T11:31:47.223Z,97808.65
2019-03-03T11:34:19.917Z,97813.73
2019-03-03T11:36:52.658Z,97809.20
2019-03-03T11:39:35.139Z,97803.58
2019-03-03T11:42:07.950Z,97800.73
2019-03-03T11:44:46.196Z,97793.03
2019-03-03T11:47:35.228Z,97804.97
2019-03-03T11:50:17.248Z,97792.41
2019-03-03T11:52:52.385Z,97796.91
2019-03-03T11:55:25.282Z,97797.23
2019-03-03T11:58:00.439Z,97774.13
2019-03-03T12:00:36.604Z,97786.92
2019-03-03T12:03:25.895Z,97777.64
2019-03-03T12:05:58.624Z,97788.30
2019-03-03T12:08:31.229Z,97778.03
2019-03-03T12:11:03.852Z,97779.08
2019-03-03T12:13:39.140Z,97765.13
2019-03-03T12:16:18.898Z,97776.63
2019-03-03T12:18:51.601Z,97778.64
2019-03-03T12:21:24.362Z,97763.97
2019-03-03T12:24:05.868Z,97757.38
2019-03-03T12:26:54.584Z,97765.44
2019-03-03T12:29:42.038Z,97755.89
2019-03-03T12:32:20.651Z,97745.19
2019-03-03T12:35:09.628Z,97740.04
2019-03-03T12:37:49.231Z,97738.55
2019-03-03T12:40:24.734Z,97735.40
2019-03-03T12:43:00.072Z,97743.45
2019-03-03T12:45:38.998Z,97730.28
2019-03-03T12:48:13.284Z,97730.52
2019-03-03T12:50:48.577Z,97728.02
2019-03-03T12:53:25.788Z,97726.78
2019-03-03T12:56:14.153Z,97718.88
2019-03-03T12:58:55.870Z,97715.69
2019-03-03T13:01:45.367Z,97708.45
2019-03-03T13:04:21.358Z,97702.67
2019-03-03T13:06:59.794Z,97703.82
2019-03-03T13:09:35.301Z,97703.52
2019-03-03T13:12:23.760Z,97689.53
2019-03-03T13:15:04.945Z,97695.63
2019-03-03T13:17:48.310Z,97694.64
2019-03-03T13:20:20.688Z,97680.90
2019-03-03T13:22:59.537Z,97688.23
2019-03-03T13:25:41.093Z,97685.35
2019-03-03T13:28:30.057Z,97671.77
2019-03-03T13:31:16.353Z,97671.14
2019-03-03T13:34:06.590Z,97656.52
2019-03-03T13:36:48.648Z,97645.61
2019-03-03T13:39:21.517Z,97641.15
2019-03-03T13:42:10.531Z,97653.20
2019-03-03T13:44:45.746Z,97652.13
2019-03-03T13:47:16.909Z,97647.20
2019-03-03T13:49:47.894Z,97644.13
2019-03-03T13:52:21.739Z,97645.70
2019-03-03T13:54:54.174Z,97635.26
2019-03-03T13:57:26.488Z,97634.19
2019-03-03T13:59:58.901Z,97634.62
2019-03-03T14:02:29.942Z,97636.27
2019-03-03T14:05:01.226Z,97634.62
2019-03-03T14:07:33.787Z,97639.84
2019-03-03T14:10:06.840Z,97632.78
2019-03-03T14:12:39.721Z,97625.33
2019-03-03T14:15:13.233Z,97623.45
2019-03-03T14:20:22.796Z,97616.03
2019-03-03T14:22:54.292Z,97604.89
2019-03-03T14:25:25.698Z,97613.65
2019-03-03T14:27:57.069Z,97614.73
2019-03-03T14:30:29.045Z,97606.89
2019-03-03T14:33:00.111Z,97611.20
2019-03-03T14:35:31.113Z,97594.03
2019-03-03T14:38:02.154Z,97578.74
2019-03-03T14:40:33.378Z,97604.48
2019-03-03T14:43:04.753Z,97594.60
2019-03-03T14:45:38.647Z,97593.70
2019-03-03T14:48:11.008Z,97591.75
2019-03-03T14:50:41.945Z,97586.98
2019-03-03T14:53:12.863Z,97583.09
2019-03-03T14:55:43.790Z,97584.86
2019-03-03T14:58:15.011Z,97573.76
2019-03-03T15:00:46.063Z,97577.05
2019-03-03T15:03:17.178Z,97570.54
2019-03-03T15:05:48.950Z,97572.47
2019-03-03T15:08:19.909Z,97571.28
2019-03-03T15:10:51.783Z,97570.91
2019-03-03T15:13:22.748Z,97565.76
2019-03-03T15:15:53.780Z,97565.38
2019-03-03T15:18:24.738Z,97554.14
2019-03-03T15:20:55.722Z,97559.83
2019-03-03T15:23:26.655Z,97566.36
2019-03-03T15:25:57.619Z,97541.55
2019-03-03T15:28:32.496Z,97540.00
2019-03-03T15:31:03.604Z,97555.01
2019-03-03T15:33:34.590Z,97532.72
2019-03-03T15:36:05.704Z,97536.09
2019-03-03T15:38:36.856Z,97527.50
2019-03-03T15:41:07.882Z,97531.40
2019-03-03T15:43:38.746Z,97524.02
2019-03-03T15:46:09.723Z,97522.80
2019-03-03T15:48:40.691Z,97527.00
2019-03-03T15:51:11.854Z,97524.39
2019-03-03T15:53:43.097Z,97530.70
2019-03-03T15:56:16.008Z,97528.83
2019-03-03T15:58:55.404Z,97525.45
2019-03-03T16:01:20.102Z,97523.84
2019-03-03T16:03:51.134Z,97527.50
2019-03-03T16:06:22.172Z,97523.12
2019-03-03T16:08:53.279Z,97524.50
2019-03-03T16:11:24.523Z,97521.21
2019-03-03T16:13:55.487Z,97518.52
2019-03-03T16:16:26.462Z,97519.83
2019-03-03T16:18:57.447Z,97521.12
2019-03-03T16:21:28.494Z,97526.89
2019-03-03T16:23:59.742Z,97519.18
2019-03-03T16:26:30.770Z,97516.19
2019-03-03T16:29:01.778Z,97511.97
2019-03-03T16:31:32.704Z,97504.30
2019-03-03T16:34:03.826Z,97496.47
2019-03-03T16:36:38.123Z,97492.33
2019-03-03T16:39:09.957Z,97486.34
2019-03-03T16:41:40.844Z,97491.66
2019-03-03T16:44:11.882Z,97482.52
2019-03-03T16:46:43.030Z,97468.52
2019-03-03T16:49:13.980Z,97465.72
2019-03-03T16:51:45.128Z,97456.20
2019-03-03T16:54:16.090Z,97454.68
2019-03-03T16:56:47.142Z,97462.05
2019-03-03T16:59:18.249Z,97464.41
2019-03-03T17:01:49.372Z,97468.48
2019-03-03T17:04:20.512Z,97458.67
2019-03-03T17:06:51.768Z,97458.41
2019-03-03T17:09:25.979Z,97455.72
2019-03-03T17:11:57.151Z,97456.17
2019-03-03T17:14:28.364Z,97457.02
2019-03-03T17:17:02.223Z,97453.84
2019-03-03T17:19:33.455Z,97451.80
2019-03-03T17:22:05.028Z,97452.50
2019-03-03T17:24:36.309Z,97450.82
2019-03-03T17:27:07.518Z,97452.31
2019-03-03T17:29:38.502Z,97447.09
2019-03-03T17:32:09.469Z,97446.80
2019-03-03T17:34:40.886Z,97450.16
2019-03-03T17:37:12.441Z,97446.72
2019-03-03T17:39:43.661Z,97438.81
2019-03-03T17:42:16.883Z,97438.05
2019-03-03T17:44:50.836Z,97438.59
2019-03-03T17:47:21.792Z,97434.48
2019-03-03T17:49:52.858Z,97430.35
2019-03-03T17:52:23.950Z,97432.92
2019-03-03T17:54:55.377Z,97430.52
2019-03-03T17:57:26.525Z,97437.46
2019-03-03T17:59:57.539Z,97424.39
2019-03-03T18:02:29.609Z,97424.66
2019-03-03T18:05:00.827Z,97424.89
2019-03-03T18:07:31.922Z,97412.50
2019-03-03T18:10:03.501Z,97409.74
2019-03-03T18:12:34.635Z,97398.66
2019-03-03T18:15:08.547Z,97399.05
2019-03-03T18:17:40.113Z,97406.70
2019-03-03T18:20:22.067Z,97399.69
2019-03-03T18:22:53.249Z,97406.54
2019-03-03T18:25:24.248Z,97403.35
2019-03-03T18:27:55.271Z,97395.43
2019-03-03T18:30:29.535Z,97394.23
2019-03-03T18:33:00.543Z,97389.09
2019-03-03T18:35:31.589Z,97391.94
2019-03-03T18:38:02.617Z,97380.59
2019-03-03T18:40:33.769Z,97374.77
2019-03-03T18:43:04.796Z,97373.92
2019-03-03T18:45:35.848Z,97381.97
2019-03-03T18:48:06.875Z,97383.53
2019-03-03T18:50:37.911Z,97385.37
2019-03-03T18:53:08.851Z,97378.33
2019-03-03T18:55:39.845Z,97379.42
2019-03-03T18:58:10.791Z,97382.95
2019-03-03T19:00:41.847Z,97388.45
2019-03-03T19:03:13.017Z,97388.33
2019-03-03T19:05:44.064Z,97385.59
2019-03-03T19:08:15.332Z,97378.36
2019-03-03T19:10:46.410Z,97384.20
2019-03-03T19:13:17.678Z,97378.08
2019-03-03T19:15:48.663Z,97374.32
2019-03-03T19:18:19.727Z,97375.31
2019-03-03T19:20:50.829Z,97361.45
2019-03-03T19:23:22.751Z,97366.38
2019-03-03T19:25:53.888Z,97369.66
2019-03-03T19:28:36.435Z,97368.16
2019-03-03T19:31:14.488Z,97361.80
2019-03-03T19:33:48.652Z,97356.28
2019-03-03T19:36:19.700Z,97363.10
2019-03-03T19:38:52.176Z,97357.05
2019-03-03T19:41:24.815Z,97358.53
2019-03-03T19:43:55.885Z,97347.89
2019-03-03T19:46:27.152Z,97345.67
2019-03-03T19:48:58.180Z,97345.37
2019-03-03T19:51:29.294Z,97335.98
2019-03-03T19:54:00.288Z,97333.77
2019-03-03T19:56:37.631Z,97331.31
2019-03-03T19:59:08.693Z,97339.34
2019-03-03T20:01:41.984Z,97335.98
2019-03-03T20:04:13.189Z,97333.37
2019-03-03T20:06:44.995Z,97335.05
2019-03-03T20:09:17.963Z,97335.20
2019-03-03T20:11:49.026Z,97324.02
2019-03-03T20:14:20.056Z,97329.84
2019-03-03T20:16:51.385Z,97318.15
2019-03-03T20:19:22.370Z,97316.98
2019-03-03T20:21:54.612Z,97321.13
2019-03-03T20:24:28.434Z,97320.19
2019-03-03T20:26:59.724Z,97316.02
2019-03-03T20:29:34.014Z,97308.07
2019-03-03T20:32:06.874Z,97298.20
2019-03-03T20:34:38.059Z,97297.29
2019-03-03T20:37:09.264Z,97296.70
2019-03-03T20:39:40.146Z,97285.79
2019-03-03T20:42:11.563Z,97281.13
2019-03-03T20:44:45.650Z,97282.66
2019-03-03T20:47:17.230Z,97278.47
2019-03-03T20:49:48.120Z,97286.47
2019-03-03T20:52:19.182Z,97285.94
2019-03-03T20:54:50.090Z,97286.08
2019-03-03T20:57:21.720Z,97283.02
2019-03-03T20:59:52.911Z,97281.13
2019-03-03T21:02:26.327Z,97283.42
2019-03-03T21:04:58.038Z,97279.53
2019-03-03T21:07:28.916Z,97273.80
2019-03-03T21:10:01.247Z,97273.25
2019-03-03T21:12:32.542Z,97268.05
2019-03-03T21:15:06.330Z,97272.51
2019-03-03T21:17:37.361Z,97270.30
2019-03-03T21:20:11.046Z,97272.34
2019-03-03T21:22:42.659Z,97273.18
2019-03-03T21:25:15.144Z,97267.31
2019-03-03T21:27:46.818Z,97257.05
2019-03-03T21:30:19.615Z,97256.21
2019-03-03T21:32:50.629Z,97258.28
2019-03-03T21:35:21.642Z,97249.05
2019-03-03T21:37:52.911Z,97247.05
2019-03-03T21:40:28.030Z,97237.27
2019-03-03T21:42:59.153Z,97233.75
2019-03-03T21:45:30.601Z,97229.98
2019-03-03T21:48:01.556Z,97224.27
2019-03-03T21:50:32.803Z,97220.75
2019-03-03T21:53:03.852Z,97221.13
2019-03-03T21:55:34.804Z,97216.98
2019-03-03T21:58:07.043Z,97222.19
2019-03-03T22:00:40.850Z,97218.34
2019-03-03T22:03:11.809Z,97213.53
2019-03-03T22:05:42.847Z,97208.05
2019-03-03T22:08:13.708Z,97205.98
2019-03-03T22:10:44.693Z,97200.64
2019-03-03T22:13:15.762Z,97183.17
2019-03-03T22:15:46.672Z,97186.67
2019-03-03T22:18:17.585Z,97180.81
2019-03-03T22:20:48.605Z,97176.73
2019-03-03T22:23:19.630Z,97181.09
2019-03-03T22:25:50.610Z,97168.27
2019-03-03T22:28:21.617Z,97161.84
2019-03-03T22:30:52.945Z,97162.30
2019-03-03T22:33:23.918Z,97145.25
2019-03-03T22:35:54.913Z,97152.66
2019-03-03T22:38:25.879Z,97148.45
2019-03-03T22:40:56.915Z,97150.09
2019-03-03T22:43:27.949Z,97145.93
2019-03-03T22:45:58.885Z,97142.59
2019-03-03T22:48:29.836Z,97149.22
2019-03-03T22:51:00.825Z,97132.52
2019-03-03T22:53:31.808Z,97129.77
2019-03-03T22:56:02.744Z,97129.36
2019-03-03T22:58:33.679Z,97119.80
2019-03-03T23:01:08.040Z,97119.67
2019-03-03T23:03:42.044Z,97122.47
2019-03-03T23:06:18.891Z,97114.52
2019-03-03T23:08:55.744Z,97117.78
2019-03-03T23:11:56.937Z,97123.28
2019-03-03T23:14:59.725Z,97123.05
2019-03-03T23:17:57.789Z,97127.45
2019-03-03T23:20:31.687Z,97114.37
2019-03-03T23:23:20.965Z,97107.75
2019-03-03T23:25:52.936Z,97086.70
2019-03-03T23:28:24.387Z,97065.05
2019-03-03T23:30:55.501Z,97072.78
2019-03-03T23:33:26.435Z,97080.73
2019-03-03T23:35:57.396Z,97085.06
2019-03-03T23:38:28.499Z,97066.74
2019-03-03T23:40:59.547Z,97074.32
2019-03-03T23:43:30.413Z,97075.55
2019-03-03T23:46:01.423Z,97079.75
2019-03-03T23:48:32.387Z,97091.69
2019-03-03T23:51:06.279Z,97081.53
2019-03-03T23:53:37.664Z,97078.28
2019-03-03T23:56:08.703Z,97065.95
2019-03-03T23:58:39.886Z,97066.41
